Time;durP1;ratioP1;P1;durP2;ratioP2;P2;SDS_P1;SDS_P2;PMS_P1;PMS_P2;Temp;Humidity;BMP_temperature;BMP_pressure;BME280_temperature;BME280_humidity;BME280_pressure;Samples;Min_cycle;Max_cycle;Signal;HPM_P1;HPM_P2
2022/07/29 00:01:33;;;;;;;5.57;1.83;;;;;;;18.32;51.71;101920.34;5131270;28;20432;-75
2022/07/29 00:04:06;;;;;;;7.25;1.95;;;;;;;18.31;51.82;101913.34;5130526;28;20421;-75
2022/07/29 00:06:39;;;;;;;2.13;1.23;;;;;;;18.23;51.84;101920.56;5129641;28;20416;-75
2022/07/29 00:09:12;;;;;;;5.72;1.50;;;;;;;18.11;51.89;101902.22;5132772;28;20432;-75
2022/07/29 00:11:44;;;;;;;4.03;1.55;;;;;;;18.28;51.94;101912.84;5128664;28;20420;-75
2022/07/29 00:14:16;;;;;;;4.40;1.33;;;;;;;18.27;52.03;101906.69;5131845;28;20428;-75
2022/07/29 00:16:49;;;;;;;6.80;1.52;;;;;;;18.26;52.13;101910.34;5129772;28;20420;-75
2022/07/29 00:19:21;;;;;;;3.63;1.30;;;;;;;18.13;52.31;101894.03;5128903;28;20435;-75
2022/07/29 00:21:54;;;;;;;4.05;1.65;;;;;;;18.19;52.29;101898.69;5129833;28;20426;-75
2022/07/29 00:24:27;;;;;;;4.15;1.50;;;;;;;18.20;52.30;101900.34;5130451;28;20423;-75
2022/07/29 00:26:59;;;;;;;5.07;1.35;;;;;;;18.18;52.45;101905.88;5130092;28;20424;-75
2022/07/29 00:29:31;;;;;;;5.00;1.38;;;;;;;18.18;52.48;101897.03;5142974;28;20501;-75
2022/07/29 00:32:04;;;;;;;4.03;1.48;;;;;;;18.15;52.59;101898.19;5135739;28;20428;-75
2022/07/29 00:37:28;;;;;;;2.42;1.30;;;;;;;18.16;52.62;101896.34;5133022;28;20824;-75
2022/07/29 00:40:00;;;;;;;5.80;1.90;;;;;;;18.14;52.66;101885.81;5128656;28;20455;-74
2022/07/29 00:42:41;;;;;;;4.32;1.50;;;;;;;18.13;52.57;101881.50;5127911;28;20446;-75
2022/07/29 00:45:15;;;;;;;3.72;1.42;;;;;;;18.13;52.71;101888.69;5128648;28;20424;-75
2022/07/29 00:47:47;;;;;;;4.63;1.85;;;;;;;18.10;52.77;101879.16;5137820;28;20485;-75
2022/07/29 00:50:19;;;;;;;4.65;1.52;;;;;;;18.06;52.89;101871.69;5129225;28;20438;-75
2022/07/29 00:52:54;;;;;;;5.20;1.45;;;;;;;18.13;52.67;101870.78;5126388;28;20436;-75
2022/07/29 00:55:27;;;;;;;5.85;1.63;;;;;;;18.14;52.75;101868.94;5128263;28;20852;-75
2022/07/29 00:58:00;;;;;;;4.30;1.70;;;;;;;18.12;52.75;101876.34;5128433;28;20964;-75
2022/07/29 01:00:32;;;;;;;2.75;1.40;;;;;;;18.09;52.88;101872.16;5136982;28;20453;-75
2022/07/29 01:03:05;;;;;;;3.20;1.40;;;;;;;18.11;52.71;101869.31;5126860;28;22113;-75
2022/07/29 01:05:37;;;;;;;4.72;1.60;;;;;;;18.08;52.89;101866.97;5130151;28;20427;-75
2022/07/29 01:08:12;;;;;;;4.88;1.60;;;;;;;18.04;52.91;101866.50;5129778;28;20861;-74
2022/07/29 01:10:46;;;;;;;3.45;1.58;;;;;;;17.97;53.14;101861.00;5128624;28;20424;-75
2022/07/29 01:13:18;;;;;;;5.60;1.73;;;;;;;18.03;53.06;101872.03;5124798;28;20412;-74
2022/07/29 01:15:57;;;;;;;4.65;1.20;;;;;;;18.01;53.06;101879.38;5127892;28;20420;-74
2022/07/29 01:18:34;;;;;;;1.88;1.48;;;;;;;18.04;53.09;101868.34;5127501;28;20420;-74
2022/07/29 01:21:51;;;;;;;5.68;1.70;;;;;;;18.04;53.12;101876.34;5130244;28;20595;-75
2022/07/29 01:24:53;;;;;;;3.17;1.60;;;;;;;17.97;53.13;101869.03;5125207;28;20424;-74
2022/07/29 01:27:42;;;;;;;7.63;1.15;;;;;;;17.89;53.25;101852.19;5126505;28;20752;-75
2022/07/29 01:30:16;;;;;;;2.63;1.40;;;;;;;17.93;53.47;101857.03;5127341;28;20440;-75
2022/07/29 01:32:50;;;;;;;4.07;1.77;;;;;;;17.89;53.34;101863.72;5131307;28;20414;-75
2022/07/29 01:35:28;;;;;;;4.90;1.60;;;;;;;17.87;53.49;101863.06;5124579;28;20821;-75
2022/07/29 01:38:08;;;;;;;5.20;1.65;;;;;;;17.81;53.62;101855.75;5124267;28;20523;-74
2022/07/29 01:40:47;;;;;;;3.25;1.50;;;;;;;17.82;53.68;101860.06;5129817;28;20792;-74
2022/07/29 01:43:24;;;;;;;4.93;1.70;;;;;;;17.82;53.75;101860.06;5127006;28;20444;-75
2022/07/29 01:46:05;;;;;;;3.60;1.58;;;;;;;17.82;53.68;101854.72;5131075;28;20430;-75
2022/07/29 01:48:44;;;;;;;4.82;1.50;;;;;;;17.74;53.52;101839.53;5132500;28;20403;-74
2022/07/29 01:51:21;;;;;;;6.18;1.50;;;;;;;17.82;53.73;101854.72;5126507;28;20434;-73
2022/07/29 01:54:00;;;;;;;3.15;1.92;;;;;;;17.77;53.74;101849.06;5128451;28;20427;-73
2022/07/29 01:56:33;;;;;;;4.00;1.88;;;;;;;17.79;53.87;101844.38;5137014;28;20435;-74
2022/07/29 01:59:08;;;;;;;4.65;1.40;;;;;;;17.77;53.87;101841.03;5126922;28;20437;-75
2022/07/29 02:01:44;;;;;;;2.33;1.42;;;;;;;17.77;54.06;101846.38;5133821;28;20417;-74
2022/07/29 02:04:19;;;;;;;5.25;1.50;;;;;;;17.76;53.90;101855.38;5131145;28;20412;-75
2022/07/29 02:06:54;;;;;;;3.00;1.27;;;;;;;17.77;53.96;101841.03;5131544;28;20412;-74
2022/07/29 02:09:27;;;;;;;3.70;1.70;;;;;;;17.73;54.16;101845.88;5131855;28;20809;-75
2022/07/29 02:12:02;;;;;;;4.93;1.77;;;;;;;17.79;54.14;101839.03;5135182;28;20434;-75
2022/07/29 02:14:37;;;;;;;3.22;1.63;;;;;;;17.79;53.93;101836.38;5131859;28;20891;-75
2022/07/29 02:17:13;;;;;;;4.45;1.52;;;;;;;17.80;53.92;101832.69;5135701;28;20894;-75
2022/07/29 02:19:46;;;;;;;5.28;1.98;;;;;;;17.77;53.96;101830.34;5130135;28;20420;-75
2022/07/29 02:22:20;;;;;;;4.35;1.77;;;;;;;17.77;54.04;101827.69;5129559;28;20888;-74
2022/07/29 02:24:53;;;;;;;4.47;1.83;;;;;;;17.76;54.25;101823.31;5139989;28;20889;-74
2022/07/29 02:27:28;;;;;;;2.30;1.75;;;;;;;17.77;54.05;101829.50;5131648;28;20422;-75
2022/07/29 02:30:03;;;;;;;7.55;1.83;;;;;;;17.76;54.02;101823.31;5130518;28;21851;-75
2022/07/29 02:32:40;;;;;;;3.40;1.77;;;;;;;17.76;54.17;101828.66;5132083;28;20915;-75
2022/07/29 02:35:15;;;;;;;4.13;1.60;;;;;;;17.75;54.18;101821.66;5131996;28;20415;-75
2022/07/29 02:38:49;;;;;;;2.83;1.50;;;;;;;17.73;54.20;101824.50;5129384;28;20427;-73
2022/07/29 02:40:42;;;;;;;3.95;1.60;;;;;;;17.74;54.21;101820.84;5131063;28;20427;-74
2022/07/29 02:43:15;;;;;;;9.02;2.20;;;;;;;17.76;54.10;101828.66;5137168;28;20422;-74
2022/07/29 02:45:50;;;;;;;4.15;1.60;;;;;;;17.74;54.20;101825.31;5137660;28;20410;-74
2022/07/29 02:48:34;;;;;;;4.28;1.95;;;;;;;17.76;54.17;101828.66;5136446;28;20442;-74
2022/07/29 02:51:13;;;;;;;4.03;1.87;;;;;;;17.75;54.24;101821.66;5131610;28;20496;-75
2022/07/29 02:53:49;;;;;;;3.85;2.17;;;;;;;17.63;54.27;101821.19;5133956;28;20434;-75
2022/07/29 02:56:29;;;;;;;7.25;2.10;;;;;;;17.62;54.42;101811.53;5127353;28;20483;-74
2022/07/29 02:59:04;;;;;;;3.17;1.75;;;;;;;17.73;54.25;101818.31;5134661;28;20447;-75
2022/07/29 03:01:39;;;;;;;2.95;1.80;;;;;;;17.74;54.25;101817.31;5134305;28;20421;-75
2022/07/29 03:04:14;;;;;;;6.90;1.95;;;;;;;17.77;54.17;101818.81;5131838;28;20950;-75
2022/07/29 03:06:48;;;;;;;2.92;1.48;;;;;;;17.74;54.40;101818.16;5129274;28;20511;-74
2022/07/29 03:09:20;;;;;;;3.95;1.70;;;;;;;17.71;54.27;101817.66;5130972;28;20436;-75
2022/07/29 03:11:54;;;;;;;3.73;1.73;;;;;;;17.72;54.55;101822.00;5128496;28;20412;-75
2022/07/29 03:14:27;;;;;;;3.38;2.05;;;;;;;17.70;54.53;101813.31;5135634;28;20572;-76
2022/07/29 03:17:00;;;;;;;6.88;1.95;;;;;;;17.69;54.61;101820.50;5131489;28;20772;-74
2022/07/29 03:19:35;;;;;;;8.52;2.38;;;;;;;17.68;54.58;101820.66;5128274;28;20416;-74
2022/07/29 03:22:07;;;;;;;3.92;1.75;;;;;;;17.68;54.72;101815.31;5130269;28;20414;-74
2022/07/29 03:24:40;;;;;;;3.17;1.80;;;;;;;17.68;54.75;101810.84;5131638;28;21192;-74
2022/07/29 03:27:12;;;;;;;6.10;2.00;;;;;;;17.65;54.75;101804.97;5131818;28;20418;-74
2022/07/29 03:29:44;;;;;;;3.83;1.60;;;;;;;17.68;54.69;101812.66;5129754;28;20443;-74
2022/07/29 03:32:17;;;;;;;5.85;1.55;;;;;;;17.66;54.81;101810.16;5127630;28;20415;-74
2022/07/29 03:34:50;;;;;;;3.88;2.00;;;;;;;17.63;54.88;101804.34;5129310;28;20423;-74
2022/07/29 03:37:23;;;;;;;4.28;1.50;;;;;;;17.67;54.80;101809.16;5129832;28;20412;-74
2022/07/29 03:39:57;;;;;;;3.13;1.40;;;;;;;17.67;54.80;101808.31;5130020;28;20937;-75
2022/07/29 03:42:33;;;;;;;9.57;2.33;;;;;;;17.64;54.80;101811.34;5131938;28;20431;-75
2022/07/29 03:45:11;;;;;;;4.68;1.90;;;;;;;17.63;54.89;101813.19;5132114;28;20826;-75
2022/07/29 03:47:49;;;;;;;4.05;1.67;;;;;;;17.60;54.98;101802.03;5131207;28;20417;-74
2022/07/29 03:50:23;;;;;;;3.90;1.92;;;;;;;17.56;55.02;101800.66;5129525;28;20410;-73
2022/07/29 03:52:55;;;;;;;5.47;1.73;;;;;;;17.54;55.14;101802.69;5132186;28;20424;-74
2022/07/29 03:55:33;;;;;;;5.30;2.07;;;;;;;17.51;55.20;101796.69;5128372;28;20459;-74
2022/07/29 03:58:06;;;;;;;5.23;2.13;;;;;;;17.50;55.27;101795.03;5131764;28;20755;-74
2022/07/29 04:00:39;;;;;;;5.47;2.00;;;;;;;17.48;55.28;101799.69;5132278;28;20409;-75
2022/07/29 04:03:12;;;;;;;4.90;2.20;;;;;;;17.51;55.17;101799.38;5131706;28;20424;-75
2022/07/29 04:05:45;;;;;;;3.58;2.20;;;;;;;17.51;55.38;101794.03;5127109;28;20405;-75
2022/07/29 04:08:18;;;;;;;5.47;2.13;;;;;;;17.52;55.27;101800.19;5138252;28;20876;-75
2022/07/29 04:10:51;;;;;;;4.90;1.83;;;;;;;17.54;55.41;101794.69;5128521;28;20941;-74
2022/07/29 04:13:24;;;;;;;4.20;2.05;;;;;;;17.51;55.24;101794.03;5134252;28;20923;-75
2022/07/29 04:15:56;;;;;;;3.85;2.10;;;;;;;17.48;55.41;101791.69;5129161;28;20440;-74
2022/07/29 04:18:29;;;;;;;3.08;1.80;;;;;;;17.42;55.39;101789.72;5128828;28;20412;-75
2022/07/29 04:21:03;;;;;;;4.55;1.80;;;;;;;17.51;55.39;101794.03;5128984;28;20433;-75
2022/07/29 04:23:36;;;;;;;4.20;1.85;;;;;;;17.50;55.60;101789.69;5132683;28;20435;-75
2022/07/29 04:26:09;;;;;;;4.10;2.03;;;;;;;17.45;55.54;101788.53;5130317;28;21028;-74
2022/07/29 04:28:42;;;;;;;4.03;1.80;;;;;;;17.50;55.58;101803.03;5129484;28;20777;-75
2022/07/29 04:31:15;;;;;;;4.57;1.80;;;;;;;17.50;55.67;101803.03;5128399;28;20792;-75
2022/07/29 04:33:47;;;;;;;3.97;1.95;;;;;;;17.52;55.58;101806.34;5130188;28;20927;-74
2022/07/29 04:36:20;;;;;;;5.17;1.87;;;;;;;17.50;55.53;101795.03;5131065;28;20417;-74
2022/07/29 04:38:53;;;;;;;4.45;1.95;;;;;;;17.59;55.58;101795.00;5131506;28;20423;-74
2022/07/29 04:41:25;;;;;;;3.73;2.13;;;;;;;17.61;55.57;101803.66;5132724;28;20428;-74
2022/07/29 04:43:57;;;;;;;8.30;2.30;;;;;;;17.55;55.73;101793.69;5130891;28;20444;-74
2022/07/29 04:46:29;;;;;;;3.65;1.73;;;;;;;17.62;55.68;101798.16;5130087;28;20439;-74
2022/07/29 04:49:02;;;;;;;6.63;2.13;;;;;;;17.64;55.66;101808.66;5143705;28;20414;-74
2022/07/29 04:51:36;;;;;;;2.85;1.65;;;;;;;17.72;55.64;101822.00;5138831;28;20430;-75
2022/07/29 04:54:08;;;;;;;7.00;2.00;;;;;;;17.74;55.48;101798.59;5131253;28;20822;-74
2022/07/29 04:56:41;;;;;;;3.22;1.50;;;;;;;17.73;55.53;101795.09;5132088;28;20420;-74
2022/07/29 04:59:13;;;;;;;5.18;1.80;;;;;;;17.79;55.46;101801.63;5134203;28;20449;-74
2022/07/29 05:01:45;;;;;;;7.00;2.20;;;;;;;17.81;55.56;101799.63;5131957;28;20411;-74
2022/07/29 05:04:18;;;;;;;3.90;2.30;;;;;;;17.84;55.50;101804.63;5135112;28;20507;-74
2022/07/29 05:06:51;;;;;;;5.60;1.83;;;;;;;17.89;55.47;101796.91;5140885;28;20427;-74
2022/07/29 05:09:24;;;;;;;7.30;2.37;;;;;;;17.98;55.31;101793.19;5144102;28;20761;-76
2022/07/29 05:11:56;;;;;;;6.00;1.92;;;;;;;18.05;55.39;101795.97;5138757;28;20415;-73
2022/07/29 05:14:28;;;;;;;5.15;2.00;;;;;;;18.16;55.17;101789.41;5148649;28;20907;-75
2022/07/29 05:17:00;;;;;;;5.00;2.13;;;;;;;18.19;55.29;101786.38;5132026;28;20427;-74
2022/07/29 05:19:33;;;;;;;4.32;1.73;;;;;;;18.27;55.09;101794.38;5132958;28;20904;-75
2022/07/29 05:22:06;;;;;;;6.28;2.00;;;;;;;18.30;55.24;101794.00;5146778;28;20948;-75
2022/07/29 05:24:38;;;;;;;4.75;1.80;;;;;;;18.34;55.06;101789.97;5139476;28;20421;-74
2022/07/29 05:27:11;;;;;;;6.18;2.65;;;;;;;18.40;55.18;101794.59;5149029;28;20410;-75
2022/07/29 05:29:44;;;;;;;6.93;2.60;;;;;;;18.41;55.12;101801.59;5138063;28;20423;-76
2022/07/29 05:32:16;;;;;;;7.35;2.25;;;;;;;18.41;55.26;101801.59;5143792;28;20479;-75
2022/07/29 05:34:48;;;;;;;7.10;2.30;;;;;;;18.41;55.14;101801.59;5134219;28;20421;-74
2022/07/29 05:37:22;;;;;;;3.13;2.10;;;;;;;18.39;55.23;101803.63;5141666;28;20432;-75
2022/07/29 05:39:54;;;;;;;5.55;2.30;;;;;;;18.30;55.13;101793.16;5145570;28;20516;-75
2022/07/29 05:42:27;;;;;;;8.18;2.10;;;;;;;18.40;55.19;101802.63;5137252;28;20445;-76
2022/07/29 05:44:59;;;;;;;3.30;2.40;;;;;;;18.49;55.07;101798.06;5141585;28;20458;-76
2022/07/29 05:47:32;;;;;;;3.72;2.08;;;;;;;18.61;55.06;101806.47;5139163;28;20511;-76
2022/07/29 05:50:05;;;;;;;3.15;1.90;;;;;;;18.65;55.22;101810.47;5138351;28;20919;-76
2022/07/29 05:52:39;;;;;;;6.43;2.40;;;;;;;18.70;55.14;101809.91;5135957;28;20431;-76
2022/07/29 05:55:11;;;;;;;6.13;2.95;;;;;;;18.76;55.04;101810.06;5144508;28;20445;-76
2022/07/29 05:57:45;;;;;;;4.32;2.13;;;;;;;18.95;54.99;101807.91;5141967;28;20911;-76
2022/07/29 06:00:18;;;;;;;3.72;2.00;;;;;;;20.03;53.78;101812.72;5137248;28;20526;-76
2022/07/29 06:02:50;;;;;;;3.80;1.80;;;;;;;21.39;52.13;101810.91;5143777;28;20430;-77
2022/07/29 06:05:23;;;;;;;4.37;1.70;;;;;;;21.54;52.01;101816.16;5156139;28;20426;-77
2022/07/29 06:07:56;;;;;;;4.00;1.77;;;;;;;21.22;52.29;101813.03;5149020;28;20557;-77
2022/07/29 06:10:29;;;;;;;3.03;1.50;;;;;;;21.01;52.39;101816.59;5126907;28;20484;-77
2022/07/29 06:13:01;;;;;;;3.47;1.70;;;;;;;20.96;52.47;101813.66;5131454;28;20431;-77
2022/07/29 06:15:33;;;;;;;5.50;1.90;;;;;;;21.64;51.65;101814.75;5139185;28;20575;-76
2022/07/29 06:18:08;;;;;;;4.97;1.67;;;;;;;21.91;51.30;101812.19;5145381;28;20467;-77
2022/07/29 06:20:41;;;;;;;5.45;2.45;;;;;;;21.81;51.11;101803.69;5147497;28;20887;-77
2022/07/29 06:23:15;;;;;;;6.70;1.88;;;;;;;21.83;51.15;101815.91;5132120;28;20800;-77
2022/07/29 06:25:48;;;;;;;3.08;2.05;;;;;;;21.93;51.00;101807.44;5130928;28;20595;-76
2022/07/29 06:28:20;;;;;;;7.27;1.80;;;;;;;22.14;50.57;101805.63;5135779;28;20547;-77
2022/07/29 06:30:52;;;;;;;6.13;1.95;;;;;;;22.65;49.83;101797.06;5144400;28;20434;-77
2022/07/29 06:33:25;;;;;;;4.32;1.67;;;;;;;23.28;48.93;101805.53;5144841;28;20436;-77
2022/07/29 06:35:57;;;;;;;8.05;1.65;;;;;;;23.40;48.48;101809.22;5145547;28;20798;-77
2022/07/29 06:38:31;;;;;;;6.95;1.75;;;;;;;22.95;48.70;101819.88;5132513;28;20519;-77
2022/07/29 06:41:04;;;;;;;5.15;1.40;;;;;;;22.49;49.04;101812.59;5142222;28;20432;-77
2022/07/29 06:43:40;;;;;;;4.35;1.60;;;;;;;22.08;49.51;101829.63;5144877;28;20419;-77
2022/07/29 06:46:17;;;;;;;4.28;1.42;;;;;;;21.76;49.77;101833.84;5135137;28;20891;-77
2022/07/29 06:48:50;;;;;;;4.10;1.67;;;;;;;21.91;49.46;101836.38;5143422;28;21105;-76
2022/07/29 06:51:23;;;;;;;4.40;1.40;;;;;;;22.51;48.53;101829.34;4951166;28;22094;-76
2022/07/29 06:53:57;;;;;;;6.45;1.35;;;;;;;23.42;47.49;101809.03;5141075;28;20427;-77
2022/07/29 06:56:30;;;;;;;3.40;1.27;;;;;;;24.11;46.67;101818.31;5147363;28;20465;-77
2022/07/29 06:59:02;;;;;;;2.42;1.33;;;;;;;24.03;46.49;101821.25;5146526;28;20433;-78
2022/07/29 07:01:35;;;;;;;5.65;1.50;;;;;;;23.96;46.58;101825.88;5139267;28;21007;-77
2022/07/29 07:04:09;;;;;;;6.68;1.70;;;;;;;24.33;45.99;101826.91;5128325;28;20423;-77
2022/07/29 07:06:41;;;;;;;1.55;1.10;;;;;;;25.06;45.12;101829.91;5133268;28;20473;-77
2022/07/29 07:09:15;;;;;;;3.72;1.30;;;;;;;25.41;44.62;101839.38;5132779;28;20417;-77
2022/07/29 07:11:47;;;;;;;5.23;1.67;;;;;;;25.63;44.36;101832.47;5127613;28;20793;-76
2022/07/29 07:14:19;;;;;;;4.70;1.45;;;;;;;26.07;43.67;101833.19;5126550;28;20517;-76
2022/07/29 07:16:51;;;;;;;3.55;1.50;;;;;;;26.02;43.62;101835.78;5129213;28;20438;-75
2022/07/29 07:19:24;;;;;;;3.43;1.67;;;;;;;26.02;43.52;101830.38;5131153;28;20624;-76
2022/07/29 07:21:56;;;;;;;3.78;1.58;;;;;;;26.15;43.29;101829.34;5128255;28;20450;-76
2022/07/29 07:24:30;;;;;;;2.55;1.30;;;;;;;26.56;42.65;101836.69;5130238;28;20436;-78
2022/07/29 07:27:03;;;;;;;5.50;1.50;;;;;;;27.02;42.09;101835.09;5126942;28;20467;-76
2022/07/29 07:29:35;;;;;;;2.90;1.25;;;;;;;27.06;41.75;101824.59;5131737;28;20827;-77
2022/07/29 07:32:07;;;;;;;5.77;1.70;;;;;;;26.76;42.09;101828.25;5129547;28;20514;-78
2022/07/29 07:34:58;;;;;;;7.00;1.88;;;;;;;26.56;42.03;101817.72;5129071;28;20426;-76
2022/07/29 07:37:31;;;;;;;2.33;1.17;;;;;;;26.40;42.21;101840.03;5129537;28;20428;-77
2022/07/29 07:40:06;;;;;;;4.75;1.25;;;;;;;26.35;42.19;101834.47;5130925;28;20422;-78
2022/07/29 07:42:38;;;;;;;8.13;1.60;;;;;;;26.74;41.76;101832.25;5130293;28;20939;-77
2022/07/29 07:45:12;;;;;;;5.17;1.40;;;;;;;27.25;41.25;101833.47;5128757;28;20425;-77
2022/07/29 07:47:45;;;;;;;3.28;1.35;;;;;;;27.44;40.91;101832.28;5131042;28;20437;-77
2022/07/29 07:50:18;;;;;;;3.63;1.40;;;;;;;27.38;40.96;101833.25;5125349;28;20414;-75
2022/07/29 07:52:52;;;;;;;2.80;1.10;;;;;;;27.18;41.22;101835.47;5129192;28;20412;-77
2022/07/29 07:55:26;;;;;;;4.00;1.38;;;;;;;27.53;40.82;101844.44;5128642;28;20972;-78
2022/07/29 07:57:59;;;;;;;6.07;1.40;;;;;;;27.44;40.81;101835.00;5128602;28;20949;-78
2022/07/29 08:00:32;;;;;;;1.95;1.00;;;;;;;27.80;40.57;101831.16;5131119;28;20864;-78
2022/07/29 08:03:04;;;;;;;6.18;1.77;;;;;;;27.99;40.26;101829.06;5133813;28;20498;-77
2022/07/29 08:05:37;;;;;;;1.98;1.05;;;;;;;28.59;39.54;101837.81;5134072;28;20416;-77
2022/07/29 08:08:09;;;;;;;6.00;1.65;;;;;;;29.00;39.39;101833.00;5132078;28;20853;-77
2022/07/29 08:10:55;;;;;;;4.40;1.45;;;;;;;28.78;39.32;101831.03;5141927;28;20431;-77
2022/07/29 08:13:29;;;;;;;4.28;1.48;;;;;;;28.49;39.71;101833.00;5134262;28;20419;-76
2022/07/29 08:16:11;;;;;;;3.88;1.40;;;;;;;28.59;39.54;101810.63;5132264;28;20976;-76
2022/07/29 08:18:46;;;;;;;3.60;1.60;;;;;;;28.92;38.93;101837.78;5119998;28;20498;-77
2022/07/29 08:21:18;;;;;;;4.75;1.48;;;;;;;28.32;39.34;101832.94;5123589;28;20424;-76
2022/07/29 08:23:52;;;;;;;2.65;1.27;;;;;;;27.54;39.74;101835.22;5133581;28;20439;-76
2022/07/29 08:26:26;;;;;;;4.03;1.52;;;;;;;26.71;40.26;101827.31;5134534;28;20444;-78
2022/07/29 08:28:58;;;;;;;6.50;1.90;;;;;;;26.21;40.70;101834.69;5132925;28;20434;-77
2022/07/29 08:31:30;;;;;;;4.72;1.42;;;;;;;25.97;40.84;101838.34;5141697;28;20428;-78
2022/07/29 08:34:04;;;;;;;3.95;1.70;;;;;;;25.70;40.92;101838.63;5130863;28;20465;-77
2022/07/29 08:36:36;;;;;;;3.75;1.35;;;;;;;25.25;41.02;101825.41;5130483;28;20511;-76
2022/07/29 08:39:09;;;;;;;6.32;1.55;;;;;;;24.95;41.32;101836.03;5132462;28;20416;-78
2022/07/29 08:41:43;;;;;;;10.70;1.90;;;;;;;25.00;41.27;101843.50;5129863;28;20419;-77
2022/07/29 08:44:16;;;;;;;5.88;1.55;;;;;;;24.98;41.03;101846.41;5130015;28;20457;-77
2022/07/29 08:46:50;;;;;;;4.73;1.87;;;;;;;25.22;40.72;101842.06;5133040;28;20758;-76
2022/07/29 08:49:22;;;;;;;5.57;1.42;;;;;;;25.62;40.23;101844.34;5129170;28;20461;-78
2022/07/29 08:51:55;;;;;;;2.40;1.27;;;;;;;26.10;39.63;101835.44;5129811;28;20696;-78
2022/07/29 08:54:29;;;;;;;5.20;1.70;;;;;;;26.55;39.21;101845.88;5129475;28;20639;-77
2022/07/29 08:57:04;;;;;;;7.57;1.53;;;;;;;26.43;39.37;101847.69;5131127;28;20419;-77
2022/07/29 08:59:41;;;;;;;4.30;1.33;;;;;;;26.37;39.49;101843.22;5131341;28;21035;-77
2022/07/29 09:02:22;;;;;;;5.15;1.67;;;;;;;26.17;39.51;101849.75;5129474;28;20430;-77
2022/07/29 09:04:54;;;;;;;3.60;1.50;;;;;;;26.14;39.63;101852.91;5125600;28;20428;-77
2022/07/29 09:07:26;;;;;;;2.63;1.40;;;;;;;25.97;39.65;101849.16;5123400;28;20439;-77
2022/07/29 09:09:59;;;;;;;2.72;1.60;;;;;;;25.71;39.86;101855.72;5125260;28;20439;-76
2022/07/29 09:12:33;;;;;;;4.20;1.75;;;;;;;25.35;40.11;101851.09;5124741;28;20933;-77
2022/07/29 09:15:06;;;;;;;2.67;1.67;;;;;;;25.16;40.37;101853.78;5127818;28;20423;-78
2022/07/29 09:17:43;;;;;;;5.60;1.80;;;;;;;25.18;40.21;101857.09;5131068;28;20520;-78
2022/07/29 09:20:18;;;;;;;4.35;1.90;;;;;;;25.33;39.93;101847.78;5128928;28;20426;-78
2022/07/29 09:22:52;;;;;;;4.90;1.70;;;;;;;25.10;39.99;101841.13;5129421;28;20418;-77
2022/07/29 09:25:35;;;;;;;8.00;1.88;;;;;;;25.08;40.31;101851.31;5131108;28;20432;-77
2022/07/29 09:28:10;;;;;;;5.57;2.00;;;;;;;25.01;40.27;101851.38;5129478;28;20513;-78
2022/07/29 09:30:52;;;;;;;4.93;2.35;;;;;;;24.76;40.54;101842.44;5126337;28;20424;-77
2022/07/29 09:33:34;;;;;;;4.50;1.80;;;;;;;24.94;40.28;101836.28;5128061;28;20432;-76
2022/07/29 09:36:08;;;;;;;4.38;1.90;;;;;;;25.35;39.77;101845.69;5103856;28;20521;-78
2022/07/29 09:38:40;;;;;;;6.70;2.00;;;;;;;25.69;39.47;101836.16;5128952;28;20438;-78
2022/07/29 09:41:13;;;;;;;5.95;1.90;;;;;;;25.68;39.47;101832.63;5130876;28;20424;-78
2022/07/29 09:43:56;;;;;;;6.85;2.53;;;;;;;25.90;39.26;101826.78;5132650;28;20537;-76
2022/07/29 09:46:29;;;;;;;2.90;1.70;;;;;;;26.11;39.14;101829.00;5127940;28;20445;-77
2022/07/29 09:49:08;;;;;;;3.70;1.77;;;;;;;26.13;39.12;101824.16;5125906;28;20424;-77
2022/07/29 09:51:41;;;;;;;6.20;2.30;;;;;;;25.76;39.42;101829.59;5126451;28;20882;-77
2022/07/29 09:54:27;;;;;;;4.88;2.17;;;;;;;25.16;40.00;101818.63;5131036;28;20429;-77
2022/07/29 09:56:59;;;;;;;7.30;3.17;;;;;;;24.89;40.41;101833.41;5125823;28;20543;-79
2022/07/29 09:59:33;;;;;;;8.20;1.98;;;;;;;24.90;40.44;101832.34;5131977;28;20428;-77
2022/07/29 10:02:13;;;;;;;5.35;2.40;;;;;;;25.19;40.11;101820.88;5126533;28;20519;-77
2022/07/29 10:04:46;;;;;;;5.00;2.13;;;;;;;25.34;40.01;101833.22;5128097;28;20419;-77
2022/07/29 10:07:19;;;;;;;6.88;2.90;;;;;;;25.15;40.22;101832.34;5123607;28;20447;-77
2022/07/29 10:09:55;;;;;;;8.10;2.23;;;;;;;24.97;40.44;101833.94;5128798;28;20510;-77
2022/07/29 10:12:27;;;;;;;5.95;2.17;;;;;;;25.01;40.56;101831.63;5127717;28;21105;-75
2022/07/29 10:15:03;;;;;;;4.20;2.33;;;;;;;24.81;40.88;101829.94;5126765;28;20451;-77
2022/07/29 10:17:35;;;;;;;5.72;2.58;;;;;;;24.54;41.12;101833.88;5123987;28;20459;-76
2022/07/29 10:20:10;;;;;;;4.32;2.15;;;;;;;24.44;41.22;101828.97;5127537;28;21492;-77
2022/07/29 10:22:43;;;;;;;5.93;2.37;;;;;;;24.63;41.06;101824.47;5126942;28;20486;-76
2022/07/29 10:25:17;;;;;;;4.03;2.33;;;;;;;24.98;40.74;101829.38;5127805;28;20888;-76
2022/07/29 10:27:51;;;;;;;8.27;2.17;;;;;;;25.13;40.50;101827.19;5126105;28;20418;-76
2022/07/29 10:30:27;;;;;;;4.03;2.57;;;;;;;25.49;40.17;101826.41;5131900;28;21046;-77
2022/07/29 10:33:25;;;;;;;11.45;2.38;;;;;;;25.90;39.78;101822.19;5134131;28;20432;-75
2022/07/29 10:36:12;;;;;;;9.87;2.50;;;;;;;26.14;39.51;101822.31;5130646;28;20424;-74
2022/07/29 10:38:52;;;;;;;3.58;2.25;;;;;;;26.31;39.40;101819.75;5133974;28;20408;-80
2022/07/29 10:41:54;;;;;;;7.07;3.20;;;;;;;26.68;38.92;101821.28;5138321;28;20491;-77
2022/07/29 10:44:27;;;;;;;4.60;2.45;;;;;;;26.77;38.81;101815.53;5135433;28;20420;-77
2022/07/29 10:47:01;;;;;;;12.10;2.78;;;;;;;26.73;38.83;101827.88;5136038;28;20412;-79
2022/07/29 10:49:33;;;;;;;6.27;2.83;;;;;;;26.52;38.96;101830.09;5133580;28;20422;-77
2022/07/29 10:52:07;;;;;;;6.28;2.47;;;;;;;26.40;39.05;101819.19;5140251;28;20506;-80
2022/07/29 10:54:43;;;;;;;5.47;2.13;;;;;;;26.47;39.01;101816.38;5130316;28;20430;-78
2022/07/29 10:57:22;;;;;;;8.50;2.72;;;;;;;26.58;38.83;101812.09;5129968;28;20424;-79
2022/07/29 11:00:32;;;;;;;6.28;2.00;;;;;;;26.60;38.81;101815.38;5133857;28;20432;-78
2022/07/29 11:03:06;;;;;;;5.63;2.28;;;;;;;26.70;38.61;101820.22;5126471;28;20461;-78
2022/07/29 11:06:02;;;;;;;9.15;2.53;;;;;;;26.88;38.30;101817.41;5131353;28;20404;-80
2022/07/29 11:08:34;;;;;;;6.03;2.13;;;;;;;26.86;38.37;101816.84;5111486;28;20416;-77
2022/07/29 11:11:35;;;;;;;4.78;2.35;;;;;;;26.98;38.19;101812.25;5133467;28;21077;-78
2022/07/29 11:14:07;;;;;;;5.55;2.67;;;;;;;27.27;37.87;101825.94;5128602;28;21615;-78
2022/07/29 11:17:03;;;;;;;7.22;2.40;;;;;;;27.16;38.18;101822.19;5128839;28;20496;-78
2022/07/29 11:19:41;;;;;;;5.82;2.17;;;;;;;27.11;37.92;101822.84;5127082;28;20435;-77
2022/07/29 11:22:33;;;;;;;3.83;1.98;;;;;;;27.00;37.99;101807.38;5135577;28;20692;-77
2022/07/29 11:25:17;;;;;;;5.55;2.47;;;;;;;27.19;37.79;101818.16;5132152;28;20428;-77
2022/07/29 11:27:49;;;;;;;6.90;2.45;;;;;;;27.07;37.77;101793.75;5125316;28;20427;-78
2022/07/29 11:30:22;;;;;;;6.05;2.28;;;;;;;27.33;37.64;101803.28;5137081;28;20506;-78
2022/07/29 11:32:54;;;;;;;8.70;2.42;;;;;;;27.56;37.17;101800.53;5133079;28;20424;-77
2022/07/29 11:35:28;;;;;;;4.07;2.10;;;;;;;27.74;36.91;101812.25;5132048;28;20964;-76
2022/07/29 11:38:26;;;;;;;10.18;2.75;;;;;;;28.05;36.42;101798.22;5127123;28;20886;-76
2022/07/29 11:41:25;;;;;;;4.63;1.92;;;;;;;28.27;36.36;101802.97;5124638;28;20972;-76
2022/07/29 11:43:59;;;;;;;6.55;2.53;;;;;;;28.18;36.34;101801.72;5122909;28;20448;-75
2022/07/29 11:46:46;;;;;;;8.07;2.00;;;;;;;27.93;36.42;101786.59;5127316;28;20462;-76
2022/07/29 11:49:22;;;;;;;5.55;2.53;;;;;;;27.96;36.37;101807.00;5124336;28;20431;-78
2022/07/29 11:52:00;;;;;;;5.30;1.88;;;;;;;27.67;36.51;101804.25;5123706;28;20432;-75
2022/07/29 11:54:35;;;;;;;7.88;2.65;;;;;;;27.68;36.38;101803.19;5124523;28;20420;-76
2022/07/29 11:57:08;;;;;;;6.05;1.98;;;;;;;27.75;36.15;101806.59;5126476;28;20438;-76
2022/07/29 11:59:41;;;;;;;6.35;2.08;;;;;;;28.00;35.93;101802.78;5127873;28;20429;-75
2022/07/29 12:02:15;;;;;;;3.53;1.80;;;;;;;28.38;35.36;101803.97;5124176;28;20495;-76
2022/07/29 12:04:51;;;;;;;4.78;2.00;;;;;;;28.77;35.06;101807.66;5126757;28;20953;-76